Time;durP1;ratioP1;P1;durP2;ratioP2;P2;SDS_P1;SDS_P2;PMS_P1;PMS_P2;Temp;Humidity;BMP_temperature;BMP_pressure;BME280_temperature;BME280_humidity;BME280_pressure;Samples;Min_cycle;Max_cycle;Signal;HPM_P1;HPM_P2
2023/07/19 00:01:43;;;;;;;9.30;4.72;;;16.70;99.90;;;;;;5027998;28;20160;-80
2023/07/19 00:04:09;;;;;;;6.28;4.18;;;16.60;99.90;;;;;;5032856;28;20549;-80
2023/07/19 00:06:35;;;;;;;10.95;4.55;;;16.60;99.90;;;;;;5048621;28;20045;-79
2023/07/19 00:09:02;;;;;;;5.82;4.00;;;16.60;99.90;;;;;;5028104;28;20621;-80
2023/07/19 00:11:27;;;;;;;7.30;4.80;;;16.60;99.90;;;;;;5063650;28;20075;-79
2023/07/19 00:13:53;;;;;;;6.82;4.65;;;16.50;99.90;;;;;;5048396;28;20061;-79
2023/07/19 00:16:19;;;;;;;10.02;4.15;;;16.50;99.90;;;;;;5015948;28;20036;-80
2023/07/19 00:18:44;;;;;;;10.02;4.18;;;16.50;99.90;;;;;;5025386;28;20038;-79
2023/07/19 00:21:10;;;;;;;5.30;4.35;;;16.50;99.90;;;;;;5047713;28;20032;-80
2023/07/19 00:23:36;;;;;;;8.43;4.18;;;16.50;99.90;;;;;;5039354;28;20120;-80
2023/07/19 00:26:02;;;;;;;9.45;4.20;;;16.40;99.90;;;;;;5052148;28;20049;-79
2023/07/19 00:28:28;;;;;;;6.80;4.18;;;16.40;99.90;;;;;;5051565;28;20132;-80
2023/07/19 00:31:03;;;;;;;10.57;4.18;;;16.40;99.90;;;;;;5021071;28;20570;-80
2023/07/19 00:33:30;;;;;;;4.95;3.33;;;16.40;99.90;;;;;;5023074;28;20094;-80
2023/07/19 00:35:55;;;;;;;5.18;4.05;;;16.40;99.90;;;;;;5030124;28;20504;-80
2023/07/19 00:38:21;;;;;;;4.53;3.38;;;16.50;99.90;;;;;;5011814;28;20042;-80
2023/07/19 00:40:48;;;;;;;5.82;4.10;;;16.40;99.90;;;;;;5030754;28;20068;-80
2023/07/19 00:43:14;;;;;;;5.47;4.28;;;16.50;99.90;;;;;;5048273;28;20037;-80
2023/07/19 00:45:49;;;;;;;6.97;4.05;;;16.50;99.90;;;;;;5031442;28;20536;-80
2023/07/19 00:48:17;;;;;;;6.60;4.07;;;16.40;99.90;;;;;;5031899;28;20045;-79
2023/07/19 00:50:44;;;;;;;8.07;4.25;;;16.50;99.90;;;;;;5042567;28;20045;-81
2023/07/19 00:53:14;;;;;;;5.88;3.97;;;16.50;99.90;;;;;;5080975;28;20041;-80
2023/07/19 00:55:40;;;;;;;7.60;4.10;;;16.50;99.90;;;;;;5031394;28;20128;-80
2023/07/19 00:58:06;;;;;;;8.90;4.28;;;16.50;99.90;;;;;;5031890;28;20044;-80
2023/07/19 01:00:32;;;;;;;7.10;3.97;;;16.50;99.90;;;;;;5045998;28;20040;-80
2023/07/19 01:02:59;;;;;;;5.22;4.00;;;16.50;99.90;;;;;;5045778;28;20689;-80
2023/07/19 01:05:26;;;;;;;6.65;3.90;;;16.50;99.90;;;;;;5032031;28;20041;-80
2023/07/19 01:07:53;;;;;;;6.35;3.78;;;16.50;99.90;;;;;;5030933;28;20036;-80
2023/07/19 01:10:19;;;;;;;6.88;4.05;;;16.50;99.90;;;;;;5024376;28;20038;-80
2023/07/19 01:13:08;;;;;;;7.30;4.40;;;16.40;99.90;;;;;;5028458;28;20112;-80
2023/07/19 01:15:37;;;;;;;10.70;4.10;;;16.50;99.90;;;;;;5023671;28;20067;-80
2023/07/19 01:18:03;;;;;;;6.85;4.28;;;16.50;99.90;;;;;;5015247;28;20114;-80
2023/07/19 01:20:30;;;;;;;7.80;4.32;;;16.50;99.90;;;;;;5029613;28;20041;-80
2023/07/19 01:22:56;;;;;;;8.55;4.13;;;16.50;99.90;;;;;;5057676;28;20072;-80
2023/07/19 01:25:23;;;;;;;9.35;4.03;;;16.50;99.90;;;;;;5067836;28;20045;-80
2023/07/19 01:27:49;;;;;;;14.77;4.88;;;16.50;99.90;;;;;;5018813;28;20055;-79
2023/07/19 01:30:15;;;;;;;12.80;4.93;;;16.50;99.90;;;;;;5032483;28;20041;-80
2023/07/19 01:32:41;;;;;;;7.15;4.13;;;16.50;99.90;;;;;;5072460;28;20053;-80
2023/07/19 01:35:07;;;;;;;7.45;4.18;;;16.50;99.90;;;;;;5044874;28;20071;-79
2023/07/19 01:37:33;;;;;;;7.55;3.97;;;16.50;99.90;;;;;;5034145;28;20068;-80
2023/07/19 01:40:00;;;;;;;8.40;4.55;;;16.50;99.90;;;;;;5029272;28;20045;-80
2023/07/19 01:42:26;;;;;;;5.65;4.13;;;16.40;99.90;;;;;;5076963;28;20510;-80
2023/07/19 01:44:53;;;;;;;6.15;4.07;;;16.50;99.90;;;;;;5027478;28;20041;-80
2023/07/19 01:47:19;;;;;;;11.50;4.45;;;16.40;99.90;;;;;;5055275;28;20482;-80
2023/07/19 01:49:44;;;;;;;5.15;3.88;;;16.40;99.90;;;;;;5010908;28;20114;-80
2023/07/19 01:52:10;;;;;;;13.25;5.20;;;16.40;99.90;;;;;;5018921;28;20418;-80
2023/07/19 01:54:36;;;;;;;7.15;4.07;;;16.40;99.90;;;;;;5015386;28;20068;-80
2023/07/19 01:57:02;;;;;;;4.65;4.00;;;16.40;99.90;;;;;;5037434;28;20041;-80
2023/07/19 01:59:28;;;;;;;8.65;3.78;;;16.40;99.90;;;;;;5010969;28;20038;-80
2023/07/19 02:01:54;;;;;;;7.75;3.90;;;16.40;99.90;;;;;;5028617;28;20552;-80
2023/07/19 02:04:19;;;;;;;6.15;4.15;;;16.30;99.90;;;;;;5011612;28;20073;-80
2023/07/19 02:06:46;;;;;;;5.50;4.00;;;16.40;99.90;;;;;;5051852;28;20506;-80
2023/07/19 02:09:11;;;;;;;6.10;3.95;;;16.30;99.90;;;;;;5036890;28;20140;-80
2023/07/19 02:11:37;;;;;;;6.70;4.25;;;16.40;99.90;;;;;;5044364;28;20672;-80
2023/07/19 02:14:03;;;;;;;7.50;4.28;;;16.30;99.90;;;;;;5018347;28;20037;-80
2023/07/19 02:16:29;;;;;;;6.00;3.95;;;16.30;99.90;;;;;;5022687;28;20038;-80
2023/07/19 02:18:55;;;;;;;6.53;4.45;;;16.40;99.90;;;;;;5026614;28;20057;-80
2023/07/19 02:21:20;;;;;;;6.47;3.92;;;16.30;99.90;;;;;;5024374;28;20041;-80
2023/07/19 02:23:46;;;;;;;7.22;3.90;;;16.30;99.90;;;;;;5079050;28;20106;-80
2023/07/19 02:26:12;;;;;;;6.85;3.92;;;16.20;99.90;;;;;;5040880;28;20095;-80
2023/07/19 02:28:38;;;;;;;8.75;4.60;;;16.20;99.90;;;;;;5023295;28;20071;-80
2023/07/19 02:31:03;;;;;;;7.30;4.18;;;16.20;99.90;;;;;;5007711;28;20147;-80
2023/07/19 02:33:29;;;;;;;7.30;4.22;;;16.20;99.90;;;;;;5053349;28;20060;-80
2023/07/19 02:35:56;;;;;;;4.93;4.10;;;16.20;99.90;;;;;;5050832;28;20095;-80
2023/07/19 02:38:23;;;;;;;6.93;4.07;;;16.10;99.90;;;;;;5016947;28;20456;-80
2023/07/19 02:40:48;;;;;;;9.77;4.40;;;16.10;99.90;;;;;;5005528;28;20561;-80
2023/07/19 02:43:14;;;;;;;6.60;4.15;;;16.10;99.90;;;;;;5052224;28;20048;-80
2023/07/19 02:45:41;;;;;;;14.85;4.32;;;16.10;99.90;;;;;;5046071;28;20083;-79
2023/07/19 02:48:07;;;;;;;6.55;4.10;;;16.20;99.90;;;;;;5011077;28;20033;-80
2023/07/19 02:50:32;;;;;;;6.43;4.10;;;16.10;99.90;;;;;;5052328;28;20045;-80
2023/07/19 02:52:58;;;;;;;8.77;4.50;;;16.10;99.90;;;;;;5016980;28;20068;-80
2023/07/19 02:55:24;;;;;;;6.82;4.07;;;16.10;99.90;;;;;;5017050;28;20604;-80
2023/07/19 02:57:49;;;;;;;7.93;4.18;;;16.10;99.90;;;;;;5074091;28;20294;-80
2023/07/19 03:00:15;;;;;;;11.38;4.55;;;16.00;99.90;;;;;;5026090;28;20036;-80
2023/07/19 03:02:41;;;;;;;6.97;3.83;;;16.10;99.90;;;;;;5048597;28;20033;-80
2023/07/19 03:05:07;;;;;;;7.90;4.28;;;16.10;99.90;;;;;;5026074;28;20190;-80
2023/07/19 03:07:33;;;;;;;7.50;4.53;;;16.00;99.90;;;;;;5000857;28;20130;-80
2023/07/19 03:09:59;;;;;;;7.18;4.20;;;16.10;99.90;;;;;;5075866;28;20098;-80
2023/07/19 03:12:25;;;;;;;7.60;4.45;;;16.10;99.90;;;;;;5023444;28;20052;-80
2023/07/19 03:14:51;;;;;;;5.70;4.30;;;16.00;99.90;;;;;;5022862;28;20033;-80
2023/07/19 03:17:17;;;;;;;8.57;4.63;;;16.10;99.90;;;;;;5001214;28;20490;-80
2023/07/19 03:19:46;;;;;;;9.70;4.80;;;16.10;99.90;;;;;;5027318;28;20049;-80
2023/07/19 03:22:12;;;;;;;9.07;5.63;;;16.10;99.90;;;;;;5056563;28;20041;-81
2023/07/19 03:24:38;;;;;;;7.30;5.05;;;16.10;99.90;;;;;;5002292;28;20057;-80
2023/07/19 03:27:03;;;;;;;7.38;4.90;;;16.00;99.90;;;;;;5026489;28;20040;-80
2023/07/19 03:29:29;;;;;;;8.27;4.90;;;16.00;99.90;;;;;;5007346;28;20037;-81
2023/07/19 03:31:55;;;;;;;6.32;4.95;;;16.10;99.90;;;;;;5048409;28;20083;-81
2023/07/19 03:34:20;;;;;;;6.05;4.93;;;16.10;99.90;;;;;;5020462;28;20072;-80
2023/07/19 03:36:47;;;;;;;8.52;5.20;;;16.00;99.90;;;;;;5052636;28;20506;-80
2023/07/19 03:39:13;;;;;;;9.50;5.38;;;16.00;99.90;;;;;;5037640;28;20429;-80
2023/07/19 03:41:39;;;;;;;7.65;5.55;;;16.00;99.90;;;;;;5011883;28;20041;-80
2023/07/19 03:44:04;;;;;;;7.53;5.40;;;16.00;99.90;;;;;;5002580;28;20039;-80
2023/07/19 03:46:30;;;;;;;13.98;6.15;;;16.00;99.90;;;;;;5042570;28;20087;-80
2023/07/19 03:48:56;;;;;;;7.60;5.75;;;16.00;99.90;;;;;;5025228;28;20064;-81
2023/07/19 03:51:21;;;;;;;8.10;5.80;;;16.00;99.90;;;;;;5019059;28;20045;-80
2023/07/19 03:53:47;;;;;;;7.32;5.88;;;16.00;99.90;;;;;;5048910;28;20040;-81
2023/07/19 03:56:13;;;;;;;8.63;6.43;;;16.10;99.90;;;;;;5000606;28;20490;-80
2023/07/19 03:58:40;;;;;;;12.02;6.72;;;16.00;99.90;;;;;;5009210;28;20041;-80
2023/07/19 04:01:06;;;;;;;9.52;6.20;;;16.00;99.90;;;;;;5000729;28;20065;-80
2023/07/19 04:03:32;;;;;;;14.32;7.00;;;16.00;99.90;;;;;;5039853;28;20076;-80
2023/07/19 04:05:58;;;;;;;8.63;6.50;;;16.00;99.90;;;;;;5002652;28;20037;-80
2023/07/19 04:08:25;;;;;;;12.43;7.00;;;16.00;99.90;;;;;;5026440;28;20041;-80
2023/07/19 04:10:51;;;;;;;8.85;7.28;;;16.00;99.90;;;;;;5036477;28;20117;-80
2023/07/19 04:13:16;;;;;;;9.55;5.85;;;16.00;99.90;;;;;;5022338;28;20120;-80
2023/07/19 04:15:43;;;;;;;12.70;7.75;;;16.00;99.90;;;;;;5007369;28;20041;-80
2023/07/19 04:18:09;;;;;;;15.77;7.97;;;15.90;99.90;;;;;;5028448;28;20041;-80
2023/07/19 04:20:36;;;;;;;12.95;8.25;;;15.90;99.90;;;;;;5006806;28;20402;-80
2023/07/19 04:23:03;;;;;;;11.00;8.98;;;15.90;99.90;;;;;;5026703;28;20103;-80
2023/07/19 04:25:30;;;;;;;9.95;8.35;;;15.90;99.90;;;;;;5041650;28;20533;-79
2023/07/19 04:27:56;;;;;;;10.90;8.07;;;15.80;99.90;;;;;;5040144;28;20056;-80
2023/07/19 04:30:22;;;;;;;11.40;8.00;;;15.80;99.90;;;;;;5052911;28;20046;-81
2023/07/19 04:32:48;;;;;;;14.75;8.65;;;15.70;99.90;;;;;;5023163;28;20037;-81
2023/07/19 04:35:14;;;;;;;11.40;8.10;;;15.80;99.90;;;;;;5003149;28;20042;-80
2023/07/19 04:37:41;;;;;;;15.88;8.73;;;15.80;99.90;;;;;;5000995;28;20052;-80
2023/07/19 04:40:10;;;;;;;11.15;8.82;;;15.70;99.90;;;;;;5015409;28;20464;-80
2023/07/19 04:42:36;;;;;;;13.30;9.35;;;15.80;99.90;;;;;;5074393;28;20083;-80
2023/07/19 04:45:02;;;;;;;13.63;9.68;;;15.70;99.90;;;;;;5000687;28;20502;-80
2023/07/19 04:47:29;;;;;;;11.45;9.18;;;15.70;99.90;;;;;;5004912;28;20045;-80
2023/07/19 04:49:54;;;;;;;12.75;9.35;;;15.70;99.90;;;;;;5014352;28;20129;-80
2023/07/19 04:52:20;;;;;;;12.38;9.18;;;15.70;99.90;;;;;;5020193;28;20128;-80
2023/07/19 04:54:48;;;;;;;14.88;9.07;;;15.70;99.90;;;;;;5007945;28;20048;-81
2023/07/19 04:57:14;;;;;;;17.35;9.32;;;15.80;99.90;;;;;;5022161;28;20090;-81
2023/07/19 04:59:40;;;;;;;10.85;9.13;;;15.80;99.90;;;;;;5053840;28;20046;-80
2023/07/19 05:02:07;;;;;;;13.52;8.25;;;15.80;99.90;;;;;;5008402;28;20037;-81
2023/07/19 05:04:33;;;;;;;10.27;8.55;;;15.80;99.90;;;;;;5033064;28;20124;-81
2023/07/19 05:06:59;;;;;;;9.70;8.57;;;15.90;99.90;;;;;;5022804;28;20112;-80
2023/07/19 05:09:25;;;;;;;10.63;8.70;;;15.90;99.90;;;;;;5065062;28;20043;-80
2023/07/19 05:11:51;;;;;;;12.13;8.90;;;16.00;99.90;;;;;;5080574;28;20063;-80
2023/07/19 05:14:17;;;;;;;15.52;8.55;;;16.00;99.90;;;;;;5030487;28;20763;-80
2023/07/19 05:16:43;;;;;;;19.33;9.93;;;16.00;99.90;;;;;;5026717;28;20079;-80
2023/07/19 05:19:09;;;;;;;12.07;9.10;;;16.00;99.90;;;;;;5008150;28;20038;-80
2023/07/19 05:21:35;;;;;;;11.23;8.70;;;16.10;99.90;;;;;;5028113;28;20093;-80
2023/07/19 05:24:01;;;;;;;15.05;9.80;;;16.10;99.90;;;;;;5024226;28;20034;-79
2023/07/19 05:26:26;;;;;;;13.90;8.68;;;16.10;99.90;;;;;;5026836;28;20056;-80
2023/07/19 05:28:52;;;;;;;11.00;8.65;;;16.20;99.90;;;;;;5034618;28;20044;-80
2023/07/19 05:31:19;;;;;;;12.35;8.52;;;16.20;99.90;;;;;;5080808;28;20033;-80
2023/07/19 05:33:45;;;;;;;10.43;8.05;;;16.20;99.90;;;;;;5013234;28;20033;-80
2023/07/19 05:36:11;;;;;;;9.60;7.55;;;16.20;99.90;;;;;;5075098;28;20512;-80
2023/07/19 05:38:36;;;;;;;9.93;7.45;;;16.20;99.90;;;;;;5025783;28;20112;-80
2023/07/19 05:41:03;;;;;;;9.20;7.50;;;16.20;99.90;;;;;;5043203;28;20040;-80
2023/07/19 05:43:31;;;;;;;9.43;6.50;;;16.20;99.90;;;;;;5027669;28;20113;-80
2023/07/19 05:46:09;;;;;;;11.35;7.10;;;16.20;99.90;;;;;;5033537;28;20041;-80
2023/07/19 05:48:35;;;;;;;9.82;7.10;;;16.20;99.90;;;;;;5026454;28;20548;-80
2023/07/19 05:51:06;;;;;;;7.85;6.38;;;16.20;99.90;;;;;;5010127;28;20048;-81
2023/07/19 05:53:32;;;;;;;9.07;6.72;;;16.20;99.90;;;;;;5023638;28;20045;-80
2023/07/19 05:55:57;;;;;;;11.40;7.55;;;16.20;99.90;;;;;;5041657;28;20036;-81
2023/07/19 05:58:23;;;;;;;8.20;6.53;;;16.20;99.90;;;;;;5043542;28;20375;-80
2023/07/19 06:00:49;;;;;;;9.20;6.68;;;16.20;99.90;;;;;;5073307;28;20033;-80
2023/07/19 06:03:16;;;;;;;11.48;6.35;;;16.10;99.90;;;;;;5054347;28;20486;-80
2023/07/19 06:05:45;;;;;;;7.47;5.68;;;16.10;99.90;;;;;;5027437;28;20060;-81
2023/07/19 06:08:11;;;;;;;7.00;5.80;;;16.00;99.90;;;;;;5028398;28;20090;-81
2023/07/19 06:10:38;;;;;;;7.40;5.25;;;16.00;99.90;;;;;;5024751;28;20111;-82
2023/07/19 06:13:05;;;;;;;9.82;5.80;;;16.00;99.90;;;;;;5010067;28;20409;-81
2023/07/19 06:15:33;;;;;;;9.82;5.40;;;16.00;99.90;;;;;;5072578;28;20060;-81
2023/07/19 06:18:00;;;;;;;8.23;5.50;;;16.00;99.90;;;;;;5039143;28;20112;-81
2023/07/19 06:20:26;;;;;;;5.57;4.20;;;16.00;99.90;;;;;;5031602;28;20059;-81
2023/07/19 06:22:52;;;;;;;8.35;4.43;;;15.90;99.90;;;;;;5031024;28;20227;-79
2023/07/19 06:25:18;;;;;;;5.57;4.40;;;15.90;99.90;;;;;;5026373;28;20461;-80
2023/07/19 06:27:44;;;;;;;9.35;4.75;;;15.90;99.90;;;;;;5017597;28;20044;-80
2023/07/19 06:30:10;;;;;;;7.75;3.95;;;16.00;99.90;;;;;;5048984;28;20510;-80
2023/07/19 06:32:36;;;;;;;5.20;3.72;;;15.90;99.90;;;;;;5050599;28;20041;-80
2023/07/19 06:35:03;;;;;;;4.88;3.78;;;15.90;99.90;;;;;;5010452;28;20056;-79
2023/07/19 06:37:29;;;;;;;10.05;4.07;;;16.00;99.90;;;;;;5050573;28;20125;-79
2023/07/19 06:39:55;;;;;;;4.05;3.30;;;16.00;99.90;;;;;;5033820;28;20128;-79
2023/07/19 06:42:20;;;;;;;7.35;4.30;;;16.10;99.90;;;;;;5017602;28;20718;-79
2023/07/19 06:44:47;;;;;;;8.40;3.90;;;16.10;99.90;;;;;;5049088;28;20040;-79
2023/07/19 06:47:14;;;;;;;6.07;3.72;;;16.10;99.90;;;;;;5032278;28;20119;-80
2023/07/19 06:49:41;;;;;;;9.40;4.60;;;16.10;99.90;;;;;;5032987;28;20132;-80
2023/07/19 06:52:07;;;;;;;6.63;3.70;;;16.10;99.90;;;;;;5033039;28;20060;-79
2023/07/19 06:54:33;;;;;;;8.07;4.18;;;16.20;99.90;;;;;;5033099;28;20553;-79
2023/07/19 06:56:58;;;;;;;9.02;4.35;;;16.20;99.90;;;;;;5017043;28;20041;-79
2023/07/19 06:59:24;;;;;;;8.52;4.22;;;16.20;99.90;;;;;;5033253;28;20037;-79
2023/07/19 07:01:50;;;;;;;4.57;3.83;;;16.20;99.90;;;;;;5033351;28;20055;-78
2023/07/19 07:04:15;;;;;;;10.02;4.05;;;16.30;99.90;;;;;;5033623;28;20037;-78
2023/07/19 07:06:41;;;;;;;5.07;3.63;;;16.30;99.90;;;;;;5033370;28;20037;-78
2023/07/19 07:09:07;;;;;;;7.15;3.85;;;16.40;99.90;;;;;;5017025;28;20040;-80
2023/07/19 07:11:33;;;;;;;6.07;4.70;;;16.40;99.90;;;;;;5016689;28;20497;-80
2023/07/19 07:13:58;;;;;;;5.78;3.55;;;16.50;99.90;;;;;;5049951;28;20033;-80
2023/07/19 07:16:24;;;;;;;6.80;3.90;;;16.60;99.90;;;;;;5033253;28;20043;-80
2023/07/19 07:18:50;;;;;;;3.55;3.17;;;16.70;99.90;;;;;;5036934;28;20036;-80
2023/07/19 07:21:15;;;;;;;5.80;4.05;;;16.70;99.90;;;;;;5039109;28;20044;-79
2023/07/19 07:23:41;;;;;;;10.82;3.85;;;16.80;99.90;;;;;;5022511;28;20083;-82
2023/07/19 07:26:07;;;;;;;5.63;3.50;;;16.90;99.90;;;;;;5056516;28;20495;-81
2023/07/19 07:28:33;;;;;;;11.50;3.65;;;17.00;99.90;;;;;;5044907;28;20053;-81
2023/07/19 07:31:06;;;;;;;6.85;3.58;;;17.10;99.90;;;;;;5038456;28;20525;-82
2023/07/19 07:33:32;;;;;;;5.25;3.20;;;17.20;99.90;;;;;;5026090;28;20052;-82
2023/07/19 07:35:57;;;;;;;7.50;2.97;;;17.30;99.90;;;;;;5059499;28;20032;-81
2023/07/19 07:38:23;;;;;;;4.75;3.15;;;17.30;99.90;;;;;;5025343;28;20729;-82
2023/07/19 07:40:49;;;;;;;6.43;3.25;;;17.40;99.90;;;;;;5033571;28;20039;-81
2023/07/19 07:43:14;;;;;;;6.03;2.67;;;17.40;99.90;;;;;;5050309;28;20415;-81
2023/07/19 07:45:40;;;;;;;5.40;2.75;;;17.40;99.90;;;;;;5017966;28;20120;-82
2023/07/19 07:48:06;;;;;;;5.22;2.70;;;17.40;99.90;;;;;;5032805;28;20167;-81
2023/07/19 07:50:31;;;;;;;5.97;2.80;;;17.40;99.90;;;;;;5050282;28;20042;-82
2023/07/19 07:52:57;;;;;;;4.53;2.72;;;17.50;99.90;;;;;;5033893;28;20533;-82
2023/07/19 07:55:23;;;;;;;2.83;2.50;;;17.50;99.90;;;;;;5050130;28;20077;-81
2023/07/19 07:57:49;;;;;;;2.90;2.50;;;17.50;99.90;;;;;;5032869;28;20037;-81
2023/07/19 08:00:17;;;;;;;5.95;2.17;;;17.60;99.90;;;;;;5016441;28;20049;-82
2023/07/19 08:02:43;;;;;;;4.93;2.17;;;17.70;99.90;;;;;;5032630;28;20203;-82
2023/07/19 08:05:09;;;;;;;2.55;2.08;;;17.70;99.90;;;;;;5017162;28;20072;-82
2023/07/19 08:07:35;;;;;;;7.05;2.10;;;17.80;99.90;;;;;;5033321;28;20040;-82
2023/07/19 08:10:01;;;;;;;3.65;2.20;;;17.80;99.90;;;;;;5083276;28;20051;-82
2023/07/19 08:12:26;;;;;;;4.30;2.65;;;17.80;99.90;;;;;;5035189;28;20132;-81
2023/07/19 08:14:52;;;;;;;4.25;2.58;;;17.90;99.90;;;;;;5034567;28;20453;-82
2023/07/19 08:17:18;;;;;;;3.78;2.08;;;17.90;99.90;;;;;;5034740;28;20229;-81
2023/07/19 08:19:43;;;;;;;3.25;2.00;;;18.10;99.90;;;;;;5034257;28;20102;-82
2023/07/19 08:22:24;;;;;;;3.88;2.33;;;18.10;99.90;;;;;;5016963;28;20402;-82
2023/07/19 08:24:50;;;;;;;5.82;2.28;;;18.20;99.90;;;;;;5051070;28;20741;-82
2023/07/19 08:27:15;;;;;;;6.75;2.65;;;18.30;99.90;;;;;;5035310;28;20087;-82
2023/07/19 08:29:41;;;;;;;4.03;2.10;;;18.30;99.90;;;;;;5053741;28;20127;-82
2023/07/19 08:32:07;;;;;;;3.05;2.33;;;18.40;99.90;;;;;;5041079;28;20398;-82
2023/07/19 08:34:33;;;;;;;5.47;2.40;;;18.50;99.90;;;;;;5038682;28;20518;-82
2023/07/19 08:36:59;;;;;;;8.45;3.83;;;18.60;99.90;;;;;;5022396;28;20562;-82
2023/07/19 08:39:27;;;;;;;3.00;2.42;;;18.60;99.90;;;;;;5022575;28;20091;-82
2023/07/19 08:41:53;;;;;;;3.17;2.30;;;18.60;99.90;;;;;;5039002;28;20088;-82
2023/07/19 08:44:22;;;;;;;3.97;2.40;;;18.70;99.90;;;;;;5038059;28;20047;-83
2023/07/19 08:46:49;;;;;;;2.63;2.25;;;18.80;99.90;;;;;;5055465;28;20033;-82
2023/07/19 08:49:18;;;;;;;5.80;2.53;;;18.80;99.90;;;;;;5037734;28;20037;-82
2023/07/19 08:51:46;;;;;;;6.93;2.60;;;18.80;99.90;;;;;;5037092;28;20033;-81
2023/07/19 08:54:12;;;;;;;4.35;2.63;;;18.90;99.90;;;;;;5086264;28;20045;-82
2023/07/19 08:56:38;;;;;;;5.22;2.97;;;18.80;99.90;;;;;;5019814;28;20037;-82
2023/07/19 08:59:05;;;;;;;5.40;2.70;;;18.90;99.90;;;;;;5086090;28;20048;-82
2023/07/19 09:01:31;;;;;;;4.32;2.42;;;18.90;99.90;;;;;;5036245;28;20044;-81
2023/07/19 09:03:57;;;;;;;3.80;2.60;;;19.00;99.90;;;;;;5035838;28;20049;-82
2023/07/19 09:06:28;;;;;;;6.45;2.72;;;19.00;99.90;;;;;;5052820;28;20029;-82
2023/07/19 09:08:55;;;;;;;3.63;2.93;;;19.10;99.90;;;;;;5035610;28;20037;-82
2023/07/19 09:11:24;;;;;;;5.00;2.30;;;19.00;99.90;;;;;;5035747;28;20284;-81
2023/07/19 09:13:55;;;;;;;6.50;2.58;;;19.00;99.90;;;;;;5035437;28;20044;-81
2023/07/19 09:16:29;;;;;;;4.28;2.33;;;19.00;99.90;;;;;;5052240;28;20057;-81
2023/07/19 09:18:57;;;;;;;5.22;2.40;;;19.00;99.90;;;;;;5035486;28;20098;-81
2023/07/19 09:21:50;;;;;;;5.78;2.50;;;19.00;99.90;;;;;;5035598;28;20040;-81
2023/07/19 09:24:15;;;;;;;3.25;2.00;;;19.20;99.90;;;;;;5049120;28;20131;-82
2023/07/19 09:27:08;;;;;;;3.15;2.25;;;19.20;99.90;;;;;;5085667;28;20132;-81
2023/07/19 09:29:34;;;;;;;3.78;2.22;;;19.20;99.90;;;;;;5016170;28;20045;-81
2023/07/19 09:32:02;;;;;;;4.50;2.40;;;19.30;99.90;;;;;;5035243;28;20048;-81
2023/07/19 09:34:29;;;;;;;4.57;2.33;;;19.30;99.90;;;;;;5035202;28;20036;-82
2023/07/19 09:36:55;;;;;;;3.60;2.30;;;19.30;99.90;;;;;;5035224;28;20080;-81
2023/07/19 09:39:22;;;;;;;4.70;2.33;;;19.20;99.90;;;;;;5018984;28;20052;-81
2023/07/19 09:41:48;;;;;;;3.15;2.38;;;19.10;99.90;;;;;;5034711;28;20047;-81
2023/07/19 09:44:17;;;;;;;3.47;2.45;;;19.00;99.90;;;;;;5034921;28;20510;-81
2023/07/19 09:46:44;;;;;;;4.68;2.42;;;18.90;99.90;;;;;;5035179;28;20044;-82
2023/07/19 09:49:11;;;;;;;4.50;2.40;;;18.90;99.90;;;;;;5035176;28;20517;-81
2023/07/19 09:51:40;;;;;;;9.15;2.67;;;18.80;99.90;;;;;;5018365;28;20538;-81
2023/07/19 09:54:11;;;;;;;3.38;2.42;;;18.80;99.90;;;;;;5084913;28;20045;-81
2023/07/19 09:56:40;;;;;;;4.68;2.47;;;18.70;99.90;;;;;;5034873;28;20051;-81
2023/07/19 09:59:17;;;;;;;3.35;2.20;;;18.60;99.90;;;;;;5051132;28;20049;-81
2023/07/19 10:01:43;;;;;;;2.90;1.90;;;18.60;99.90;;;;;;5051758;28;20510;-82
2023/07/19 10:04:29;;;;;;;5.70;2.30;;;18.50;99.90;;;;;;5019197;28;20099;-81
2023/07/19 10:07:07;;;;;;;5.75;2.92;;;18.50;99.90;;;;;;5051982;28;20048;-81
2023/07/19 10:09:39;;;;;;;7.10;2.88;;;18.50;99.90;;;;;;5051519;28;20505;-81
2023/07/19 10:12:17;;;;;;;5.90;2.72;;;18.50;99.90;;;;;;5085049;28;20045;-81
2023/07/19 10:14:53;;;;;;;4.90;2.95;;;18.60;99.90;;;;;;5052404;28;20490;-80
2023/07/19 10:17:19;;;;;;;8.38;2.65;;;18.70;99.90;;;;;;5051734;28;20040;-81
2023/07/19 10:20:21;;;;;;;4.80;1.88;;;18.70;99.90;;;;;;5018573;28;20037;-81
2023/07/19 10:22:49;;;;;;;4.15;2.20;;;18.80;99.90;;;;;;5003146;28;20052;-81
2023/07/19 10:25:40;;;;;;;3.15;1.80;;;19.00;99.90;;;;;;5051261;28;20040;-81
2023/07/19 10:28:07;;;;;;;5.05;2.30;;;19.10;99.90;;;;;;5042857;28;20045;-81
2023/07/19 10:30:51;;;;;;;4.50;2.00;;;19.30;99.90;;;;;;5084887;28;20051;-80
2023/07/19 10:33:21;;;;;;;3.97;1.80;;;19.80;99.90;;;;;;5051628;28;20048;-81
2023/07/19 10:36:14;;;;;;;2.78;2.08;;;20.40;99.90;;;;;;5085043;28;20041;-81
2023/07/19 10:38:39;;;;;;;4.80;1.90;;;20.50;99.90;;;;;;5031547;28;20529;-80
2023/07/19 10:41:07;;;;;;;2.28;1.58;;;20.50;99.90;;;;;;5017894;28;20068;-82
2023/07/19 10:43:35;;;;;;;4.18;1.70;;;20.50;99.90;;;;;;5050941;28;20382;-81
2023/07/19 10:46:04;;;;;;;4.35;1.58;;;20.40;99.90;;;;;;5034609;28;20098;-80
2023/07/19 10:48:32;;;;;;;4.28;2.05;;;20.50;99.90;;;;;;5034644;28;20045;-81
2023/07/19 10:51:05;;;;;;;2.13;1.70;;;20.50;99.90;;;;;;5034320;28;20498;-81
2023/07/19 10:53:45;;;;;;;3.85;1.40;;;20.50;99.90;;;;;;5033243;28;20098;-81
2023/07/19 10:56:13;;;;;;;3.33;1.65;;;20.50;99.90;;;;;;5033910;28;20048;-81
2023/07/19 10:58:39;;;;;;;3.85;1.42;;;20.60;99.90;;;;;;5034283;28;20036;-81
2023/07/19 11:01:06;;;;;;;1.85;1.17;;;20.80;99.90;;;;;;5017329;28;20514;-81
2023/07/19 11:03:32;;;;;;;3.58;1.67;;;21.00;99.90;;;;;;5050471;28;20052;-81
2023/07/19 11:05:58;;;;;;;2.05;1.40;;;21.20;99.90;;;;;;5084726;28;20037;-82
2023/07/19 11:08:29;;;;;;;2.60;1.20;;;21.50;99.90;;;;;;5050796;28;20037;-82
2023/07/19 11:10:56;;;;;;;2.20;1.38;;;21.50;99.90;;;;;;5083788;28;20063;-81
2023/07/19 11:13:25;;;;;;;4.03;1.77;;;21.30;99.90;;;;;;5083718;28;20132;-81
2023/07/19 11:15:55;;;;;;;1.52;1.40;;;21.20;99.90;;;;;;5034406;28;20048;-81
2023/07/19 11:18:38;;;;;;;2.88;1.58;;;21.00;99.90;;;;;;5033539;28;20051;-81
2023/07/19 11:21:04;;;;;;;2.05;1.40;;;20.70;99.90;;;;;;5033215;28;20090;-81
2023/07/19 11:23:30;;;;;;;2.67;1.50;;;20.60;99.90;;;;;;5033705;28;20045;-81
2023/07/19 11:26:10;;;;;;;1.10;0.85;;;20.40;99.90;;;;;;5083498;28;20037;-81
2023/07/19 11:28:37;;;;;;;2.55;1.50;;;20.30;99.90;;;;;;5083904;28;20041;-82
2023/07/19 11:31:05;;;;;;;1.90;1.25;;;20.10;99.90;;;;;;5033581;28;20137;-82
2023/07/19 11:33:31;;;;;;;2.20;1.45;;;20.00;99.90;;;;;;5083551;28;20042;-81
2023/07/19 11:35:56;;;;;;;2.88;1.30;;;19.80;99.90;;;;;;5050140;28;20182;-82
2023/07/19 11:38:22;;;;;;;2.58;1.73;;;19.60;99.90;;;;;;5050149;28;20041;-82
2023/07/19 11:40:48;;;;;;;4.35;1.85;;;19.30;99.90;;;;;;5033312;28;20100;-81
2023/07/19 11:43:14;;;;;;;3.33;1.58;;;19.10;99.90;;;;;;5049835;28;20148;-81
2023/07/19 11:45:40;;;;;;;2.17;1.35;;;18.90;99.90;;;;;;5050093;28;20127;-81
2023/07/19 11:48:05;;;;;;;3.58;1.67;;;18.80;99.90;;;;;;5017160;28;20126;-80
2023/07/19 11:50:32;;;;;;;2.63;1.70;;;18.60;99.90;;;;;;5033397;28;20470;-81
2023/07/19 11:53:01;;;;;;;3.97;1.58;;;18.50;99.90;;;;;;5049853;28;20041;-80
2023/07/19 11:55:28;;;;;;;2.45;1.50;;;18.50;99.90;;;;;;5016534;28;20040;-81
2023/07/19 11:58:02;;;;;;;2.22;1.58;;;18.40;99.90;;;;;;5086955;28;20429;-80
2023/07/19 12:00:29;;;;;;;2.70;1.30;;;18.20;99.90;;;;;;5019503;28;20087;-80
2023/07/19 12:02:55;;;;;;;3.13;2.03;;;18.20;99.90;;;;;;5035053;28;20533;-80
2023/07/19 12:05:24;;;;;;;1.98;1.70;;;18.10;99.90;;;;;;5033784;28;20128;-80
2023/07/19 12:07:51;;;;;;;2.75;1.67;;;18.00;99.90;;;;;;5034553;28;20048;-80
2023/07/19 12:10:18;;;;;;;5.55;2.20;;;17.90;99.90;;;;;;5034558;28;20075;-81
2023/07/19 12:12:46;;;;;;;4.35;2.03;;;17.80;99.90;;;;;;5084544;28;20453;-80
2023/07/19 12:15:13;;;;;;;4.38;2.13;;;17.80;99.90;;;;;;5032789;28;20494;-81
2023/07/19 12:17:38;;;;;;;3.55;1.63;;;17.90;99.90;;;;;;5032533;28;20048;-81
2023/07/19 12:20:06;;;;;;;4.03;1.95;;;18.00;99.90;;;;;;5032801;28;20041;-81
2023/07/19 12:22:38;;;;;;;2.38;1.73;;;18.20;99.90;;;;;;5033001;28;20063;-80
2023/07/19 12:25:04;;;;;;;2.58;1.80;;;18.40;99.90;;;;;;5033157;28;20446;-81
2023/07/19 12:27:30;;;;;;;5.75;3.25;;;18.60;99.90;;;;;;5048950;28;20152;-81
2023/07/19 12:29:58;;;;;;;1.70;1.35;;;18.70;99.90;;;;;;5082978;28;20406;-81
2023/07/19 12:32:25;;;;;;;5.20;1.50;;;18.90;99.90;;;;;;5016266;28;20041;-81
2023/07/19 12:34:50;;;;;;;2.83;1.90;;;19.10;99.90;;;;;;5028139;28;20033;-82
2023/07/19 12:37:16;;;;;;;4.05;1.60;;;19.20;99.90;;;;;;5024797;28;20111;-80
2023/07/19 12:39:43;;;;;;;2.67;1.95;;;19.20;99.90;;;;;;5076182;28;20036;-80
2023/07/19 12:42:10;;;;;;;2.60;1.80;;;19.20;99.90;;;;;;5031725;28;20038;-80
2023/07/19 12:44:36;;;;;;;2.45;1.83;;;19.20;99.90;;;;;;5022181;28;20071;-81
2023/07/19 12:47:06;;;;;;;3.70;1.88;;;19.20;99.90;;;;;;5017702;28;20044;-81